createdAt,value
2023-10-29T00:00:45.461Z,9.463059
2023-10-29T00:01:45.528Z,9.463050
2023-10-29T00:02:45.547Z,9.463024
2023-10-29T00:03:45.573Z,9.462955
2023-10-29T00:04:45.607Z,9.462922
2023-10-29T00:05:45.425Z,9.462943
2023-10-29T00:06:45.390Z,9.462952
2023-10-29T00:07:45.938Z,9.463006
2023-10-29T00:08:45.398Z,9.463023
2023-10-29T00:09:45.371Z,9.463013
2023-10-29T00:10:45.376Z,9.463023
2023-10-29T00:11:45.432Z,9.462954
2023-10-29T00:12:45.372Z,9.462930
2023-10-29T00:13:45.344Z,9.462984
2023-10-29T00:14:45.502Z,9.462965
2023-10-29T00:15:45.403Z,9.462950
2023-10-29T00:16:45.324Z,9.462962
2023-10-29T00:17:45.433Z,9.462952
2023-10-29T00:18:45.314Z,9.462949
2023-10-29T00:19:45.313Z,9.462955
2023-10-29T00:20:45.683Z,9.462947
2023-10-29T00:21:45.282Z,9.462945
2023-10-29T00:22:45.288Z,9.462903
2023-10-29T00:23:45.342Z,9.462927
2023-10-29T00:24:45.497Z,9.462967
2023-10-29T00:25:45.285Z,9.462968
2023-10-29T00:26:45.386Z,9.462948
2023-10-29T00:27:45.259Z,9.462975
2023-10-29T00:28:45.248Z,9.462968
2023-10-29T00:29:45.269Z,9.462965
2023-10-29T00:30:45.248Z,9.462947
2023-10-29T00:31:45.216Z,9.462963
2023-10-29T00:32:45.296Z,9.462992
2023-10-29T00:33:45.209Z,9.462893
2023-10-29T00:34:45.303Z,9.463067
2023-10-29T00:35:45.247Z,9.463057
2023-10-29T00:36:45.210Z,9.462987
2023-10-29T00:37:45.183Z,9.462975
2023-10-29T00:38:45.244Z,9.462984
2023-10-29T00:39:45.165Z,9.463006
2023-10-29T00:40:45.183Z,9.463060
2023-10-29T00:41:45.168Z,9.462947
2023-10-29T00:42:45.130Z,9.462960
2023-10-29T00:43:45.136Z,9.463058
2023-10-29T00:44:45.223Z,9.462877
2023-10-29T00:45:45.148Z,9.462869
2023-10-29T00:46:45.107Z,9.462934
2023-10-29T00:47:45.273Z,9.462994
2023-10-29T00:48:45.096Z,9.462922
2023-10-29T00:49:45.086Z,9.462976
2023-10-29T00:50:45.136Z,9.463076
2023-10-29T00:51:45.071Z,9.462990
2023-10-29T00:52:45.087Z,9.462914
2023-10-29T00:53:45.094Z,9.462940
2023-10-29T00:54:45.057Z,9.462948
2023-10-29T00:55:45.078Z,9.462853
2023-10-29T00:56:45.081Z,9.462697
2023-10-29T00:57:45.037Z,9.462718
2023-10-29T00:58:45.022Z,9.462753
2023-10-29T00:59:45.057Z,9.462648
2023-10-29T01:00:45.038Z,9.462633
2023-10-29T01:01:44.997Z,9.462618
2023-10-29T01:02:45.088Z,9.462705
2023-10-29T01:03:45.198Z,9.462816
2023-10-29T01:04:45.001Z,9.462890
2023-10-29T01:05:45.070Z,9.463103
2023-10-29T01:06:44.977Z,9.462802
2023-10-29T01:07:44.968Z,9.462809
2023-10-29T01:08:45.073Z,9.462671
2023-10-29T01:09:44.955Z,9.462796
2023-10-29T01:10:44.988Z,9.462749
2023-10-29T01:11:44.959Z,9.462929
2023-10-29T01:12:44.954Z,9.463131
2023-10-29T01:13:44.957Z,9.463513
2023-10-29T01:14:44.966Z,9.463301
2023-10-29T01:15:44.955Z,9.462900
2023-10-29T01:16:44.909Z,9.462953
2023-10-29T01:17:44.931Z,9.462909
2023-10-29T01:18:44.905Z,9.463004
2023-10-29T01:19:44.881Z,9.463025
2023-10-29T01:20:44.928Z,9.463118
2023-10-29T01:21:44.866Z,9.463096
2023-10-29T01:22:44.879Z,9.462955
2023-10-29T01:23:44.894Z,9.462875
2023-10-29T01:24:44.889Z,9.463030
2023-10-29T01:25:44.870Z,9.463054
2023-10-29T01:26:44.901Z,9.463043
2023-10-29T01:27:44.828Z,9.463019
2023-10-29T01:28:44.818Z,9.462859
2023-10-29T01:29:44.844Z,9.462823
2023-10-29T01:30:44.824Z,9.462910
2023-10-29T01:31:44.789Z,9.463037
2023-10-29T01:32:44.827Z,9.463068
2023-10-29T01:33:44.785Z,9.463073
2023-10-29T01:34:44.842Z,9.463104
2023-10-29T01:35:44.856Z,9.463108
2023-10-29T01:36:44.758Z,9.463112
2023-10-29T01:37:44.756Z,9.463064
2023-10-29T01:38:44.808Z,9.463048
2023-10-29T01:39:44.735Z,9.463043
2023-10-29T01:40:44.781Z,9.462996
2023-10-29T01:41:44.748Z,9.463000
2023-10-29T01:42:44.712Z,9.463032
2023-10-29T01:43:44.707Z,9.463042
2023-10-29T01:44:44.709Z,9.463055
2023-10-29T01:45:44.729Z,9.463078
2023-10-29T01:46:44.686Z,9.463107
2023-10-29T01:47:44.761Z,9.463170
2023-10-29T01:48:44.673Z,9.463118
2023-10-29T01:49:44.687Z,9.463066
2023-10-29T01:50:44.746Z,9.463030
2023-10-29T01:51:44.686Z,9.463045
2023-10-29T01:52:44.689Z,9.463018
2023-10-29T01:53:44.829Z,9.462987
2023-10-29T01:54:44.742Z,9.463035
2023-10-29T01:55:44.659Z,9.463028
2023-10-29T01:56:44.638Z,9.463040
2023-10-29T01:57:44.608Z,9.463036
2023-10-29T01:58:44.601Z,9.463088
2023-10-29T01:59:44.617Z,9.463113
2023-10-29T02:00:44.606Z,9.463151
2023-10-29T02:01:44.617Z,9.463093
2023-10-29T02:02:44.658Z,9.463057
2023-10-29T02:03:44.753Z,9.463034
2023-10-29T02:05:44.634Z,9.463011
2023-10-29T02:06:44.592Z,9.463141
2023-10-29T02:07:44.569Z,9.463035
2023-10-29T02:08:44.574Z,9.463003
2023-10-29T02:09:44.525Z,9.463014
2023-10-29T02:10:44.542Z,9.462993
2023-10-29T02:11:44.536Z,9.463040
2023-10-29T02:12:44.525Z,9.463061
2023-10-29T02:13:44.493Z,9.462948
2023-10-29T02:14:44.556Z,9.463020
2023-10-29T02:15:44.624Z,9.462915
2023-10-29T02:16:44.472Z,9.462913
2023-10-29T02:17:44.542Z,9.463052
2023-10-29T02:18:44.459Z,9.463189
2023-10-29T02:19:44.490Z,9.463143
2023-10-29T02:20:44.475Z,9.462713
2023-10-29T02:21:44.445Z,9.462560
2023-10-29T02:22:44.436Z,9.462873
2023-10-29T02:23:44.453Z,9.463068
2023-10-29T02:24:44.459Z,9.463160
2023-10-29T02:25:44.423Z,9.463421
2023-10-29T02:26:44.415Z,9.463744
2023-10-29T02:27:45.079Z,9.464260
2023-10-29T02:28:44.411Z,9.463905
2023-10-29T02:29:44.488Z,9.463722
2023-10-29T02:30:44.387Z,9.463279
2023-10-29T02:31:44.398Z,9.463091
2023-10-29T02:32:44.444Z,9.463028
2023-10-29T02:33:44.358Z,9.463201
2023-10-29T02:34:44.366Z,9.463305
2023-10-29T02:35:44.360Z,9.463194
2023-10-29T02:36:44.333Z,9.463119
2023-10-29T02:37:44.331Z,9.463061
2023-10-29T02:38:44.454Z,9.463078
2023-10-29T02:39:44.346Z,9.463315
2023-10-29T02:40:44.316Z,9.463418
2023-10-29T02:41:44.344Z,9.463440
2023-10-29T02:42:44.380Z,9.463058
2023-10-29T02:43:44.309Z,9.462949
2023-10-29T02:44:44.461Z,9.462842
2023-10-29T02:45:44.314Z,9.462839
2023-10-29T02:46:44.281Z,9.462918
2023-10-29T02:47:44.348Z,9.462984
2023-10-29T02:48:44.253Z,9.462912
2023-10-29T02:49:44.285Z,9.462719
2023-10-29T02:50:44.310Z,9.462436
2023-10-29T02:51:44.241Z,9.462474
2023-10-29T02:52:44.236Z,9.462408
2023-10-29T02:53:44.235Z,9.463033
2023-10-29T02:54:44.715Z,9.463046
2023-10-29T02:55:44.219Z,9.462891
2023-10-29T02:56:44.244Z,9.462936
2023-10-29T02:57:44.194Z,9.462890
2023-10-29T02:58:44.209Z,9.462510
2023-10-29T02:59:44.257Z,9.462757
2023-10-29T03:00:44.214Z,9.463172
2023-10-29T03:01:44.164Z,9.462694
2023-10-29T03:02:44.270Z,9.462853
2023-10-29T03:03:44.212Z,9.462834
2023-10-29T03:04:44.169Z,9.462620
2023-10-29T03:05:54.199Z,9.463077
2023-10-29T03:06:45.198Z,9.463053
2023-10-29T03:07:44.120Z,9.463007
2023-10-29T03:08:44.135Z,9.462915
2023-10-29T03:09:44.156Z,9.462805
2023-10-29T03:10:44.102Z,9.463084
2023-10-29T03:11:44.156Z,9.462989
2023-10-29T03:12:44.093Z,9.462944
2023-10-29T03:13:44.083Z,9.462971
2023-10-29T03:14:44.131Z,9.463096
2023-10-29T03:15:44.266Z,9.463208
2023-10-29T03:16:44.101Z,9.463640
2023-10-29T03:17:44.093Z,9.464005
2023-10-29T03:18:44.062Z,9.463097
2023-10-29T03:19:44.380Z,9.462905
2023-10-29T03:20:44.113Z,9.462904
2023-10-29T03:21:44.026Z,9.462869
2023-10-29T03:22:44.024Z,9.462630
2023-10-29T03:23:44.058Z,9.462414
2023-10-29T03:24:44.002Z,9.463007
2023-10-29T03:25:44.011Z,9.463076
2023-10-29T03:26:44.651Z,9.463243
2023-10-29T03:27:43.987Z,9.463112
2023-10-29T03:28:43.975Z,9.462953
2023-10-29T03:29:44.003Z,9.462861
2023-10-29T03:30:43.979Z,9.462846
2023-10-29T03:31:44.021Z,9.462884
2023-10-29T03:32:44.049Z,9.462982
2023-10-29T03:33:43.934Z,9.463030
2023-10-29T03:34:43.934Z,9.463116
2023-10-29T03:35:43.990Z,9.463071
2023-10-29T03:36:43.919Z,9.463051
2023-10-29T03:37:43.910Z,9.462914
2023-10-29T03:38:43.928Z,9.462987
2023-10-29T03:39:43.893Z,9.462982
2023-10-29T03:40:43.888Z,9.463026
2023-10-29T03:41:43.937Z,9.462986
2023-10-29T03:42:44.038Z,9.463047
2023-10-29T03:43:43.867Z,9.462977
2023-10-29T03:44:43.942Z,9.463029
2023-10-29T03:45:43.922Z,9.462930
2023-10-29T03:46:43.867Z,9.462939
2023-10-29T03:47:44.086Z,9.462984
2023-10-29T03:48:43.854Z,9.462953
2023-10-29T03:49:43.829Z,9.462974
2023-10-29T03:50:43.852Z,9.463068
2023-10-29T03:51:43.837Z,9.462955
2023-10-29T03:52:43.811Z,9.463002
2023-10-29T03:53:43.874Z,9.463000
2023-10-29T03:54:43.791Z,9.463065
2023-10-29T03:55:43.776Z,9.462993
2023-10-29T03:56:44.330Z,9.463053
2023-10-29T03:57:43.773Z,9.463047
2023-10-29T03:58:43.758Z,9.463043
2023-10-29T03:59:43.788Z,9.463018
2023-10-29T04:00:43.756Z,9.463055
2023-10-29T04:01:43.839Z,9.462980
2023-10-29T04:02:43.847Z,9.462999
2023-10-29T04:03:43.810Z,9.462942
2023-10-29T04:04:45.809Z,9.463022
2023-10-29T04:05:44.763Z,9.462984
2023-10-29T04:06:43.707Z,9.463030
2023-10-29T04:07:43.721Z,9.463013
2023-10-29T04:08:43.712Z,9.463084
2023-10-29T04:09:43.689Z,9.463065
2023-10-29T04:10:43.680Z,9.462975
2023-10-29T04:11:43.686Z,9.462966
2023-10-29T04:12:43.688Z,9.462978
2023-10-29T04:13:43.660Z,9.462995
2023-10-29T04:14:43.751Z,9.462976
2023-10-29T04:15:43.646Z,9.462964
2023-10-29T04:16:43.669Z,9.462949
2023-10-29T04:17:43.768Z,9.462956
2023-10-29T04:18:43.627Z,9.462933
2023-10-29T04:19:43.624Z,9.462973
2023-10-29T04:20:43.647Z,9.462979
2023-10-29T04:21:43.611Z,9.463044
2023-10-29T04:22:43.647Z,9.462993
2023-10-29T04:23:44.121Z,9.463078
2023-10-29T04:24:43.581Z,9.463054
2023-10-29T04:25:43.567Z,9.462982
2023-10-29T04:26:43.609Z,9.462969
2023-10-29T04:27:43.568Z,9.462878
2023-10-29T04:28:43.782Z,9.463024
2023-10-29T04:29:43.585Z,9.462979
2023-10-29T04:30:43.593Z,9.463112
2023-10-29T04:31:43.536Z,9.463046
2023-10-29T04:32:43.627Z,9.462996
2023-10-29T04:33:43.517Z,9.462811
2023-10-29T04:34:43.545Z,9.463022
2023-10-29T04:35:43.532Z,9.463104
2023-10-29T04:36:43.547Z,9.463055
2023-10-29T04:37:43.487Z,9.463092
2023-10-29T04:38:43.536Z,9.462933
2023-10-29T04:39:43.495Z,9.462919
2023-10-29T04:40:43.525Z,9.462864
2023-10-29T04:41:43.472Z,9.463101
2023-10-29T04:42:43.453Z,9.463167
2023-10-29T04:43:43.459Z,9.463231
2023-10-29T04:44:43.478Z,9.463064
2023-10-29T04:45:43.450Z,9.463238
2023-10-29T04:46:43.453Z,9.463135
2023-10-29T04:47:43.479Z,9.462997
2023-10-29T04:48:43.502Z,9.463137
2023-10-29T04:49:43.441Z,9.462867
2023-10-29T04:50:43.428Z,9.463336
2023-10-29T04:51:43.400Z,9.463025
2023-10-29T04:52:43.518Z,9.463067
2023-10-29T04:53:43.419Z,9.462940
2023-10-29T04:54:43.388Z,9.462757
2023-10-29T04:55:43.398Z,9.462954
2023-10-29T04:56:43.388Z,9.463214
2023-10-29T04:57:43.361Z,9.463139
2023-10-29T04:58:43.351Z,9.462863
2023-10-29T04:59:43.360Z,9.462678
2023-10-29T05:00:43.341Z,9.463203
2023-10-29T05:01:43.393Z,9.463064
2023-10-29T05:02:43.395Z,9.463065
2023-10-29T05:03:43.437Z,9.463099
2023-10-29T05:04:43.329Z,9.463175
2023-10-29T05:05:43.335Z,9.462942
2023-10-29T05:06:43.745Z,9.462942
2023-10-29T05:07:43.299Z,9.462900
2023-10-29T05:08:43.324Z,9.463087
2023-10-29T05:09:43.272Z,9.463202
2023-10-29T05:10:43.281Z,9.462916
2023-10-29T05:11:43.309Z,9.462973
2023-10-29T05:12:43.273Z,9.462978
2023-10-29T05:13:43.259Z,9.463109
2023-10-29T05:14:43.263Z,9.462927
2023-10-29T05:15:43.249Z,9.463013
2023-10-29T05:16:43.347Z,9.463094
2023-10-29T05:17:43.255Z,9.462955
2023-10-29T05:18:43.235Z,9.462997
2023-10-29T05:19:43.267Z,9.462948
2023-10-29T05:20:43.287Z,9.462876
2023-10-29T05:21:43.231Z,9.462976
2023-10-29T05:22:43.265Z,9.463022
2023-10-29T05:23:43.278Z,9.462981
2023-10-29T05:24:43.211Z,9.462998
2023-10-29T05:25:43.187Z,9.462931
2023-10-29T05:26:43.169Z,9.462975
2023-10-29T05:27:43.179Z,9.462932
2023-10-29T05:28:43.154Z,9.462936
2023-10-29T05:29:43.151Z,9.462966
2023-10-29T05:30:43.177Z,9.462974
2023-10-29T05:31:43.140Z,9.462992
2023-10-29T05:32:43.288Z,9.463069
2023-10-29T05:33:43.126Z,9.463010
2023-10-29T05:34:43.114Z,9.463000
2023-10-29T05:35:43.182Z,9.463049
2023-10-29T05:36:43.098Z,9.463019
2023-10-29T05:37:43.220Z,9.462998
2023-10-29T05:38:43.110Z,9.462979
2023-10-29T05:39:43.375Z,9.463022
2023-10-29T05:40:43.092Z,9.463068
2023-10-29T05:41:43.234Z,9.463010
2023-10-29T05:42:43.097Z,9.463091
2023-10-29T05:43:43.050Z,9.463016
2023-10-29T05:44:43.084Z,9.463045
2023-10-29T05:45:43.058Z,9.463013
2023-10-29T05:46:43.097Z,9.462998
2023-10-29T05:47:43.099Z,9.462989
2023-10-29T05:48:43.095Z,9.462996
2023-10-29T05:49:43.021Z,9.462995
2023-10-29T05:50:43.017Z,9.462993
2023-10-29T05:51:43.044Z,9.462975
2023-10-29T05:52:42.989Z,9.462996
2023-10-29T05:53:43.030Z,9.462967
2023-10-29T05:54:43.041Z,9.462984
2023-10-29T05:55:43.123Z,9.463003
2023-10-29T05:56:43.032Z,9.462978
2023-10-29T05:57:42.992Z,9.463000
2023-10-29T05:58:42.952Z,9.463003
2023-10-29T05:59:50.054Z,9.462975
2023-10-29T06:00:42.998Z,9.462967
2023-10-29T06:01:43.059Z,9.463043
2023-10-29T06:02:43.020Z,9.463031
2023-10-29T06:03:43.213Z,9.463030
2023-10-29T06:04:43.075Z,9.463062
2023-10-29T06:05:42.952Z,9.463060
2023-10-29T06:06:42.902Z,9.463016
2023-10-29T06:07:43.007Z,9.462957
2023-10-29T06:08:42.917Z,9.462984
2023-10-29T06:09:42.897Z,9.462977
2023-10-29T06:10:42.883Z,9.463006
2023-10-29T06:11:42.894Z,9.463059
2023-10-29T06:12:42.921Z,9.463039
2023-10-29T06:13:42.861Z,9.463010
2023-10-29T06:14:42.870Z,9.463014
2023-10-29T06:15:42.850Z,9.463020
2023-10-29T06:16:42.884Z,9.463023
2023-10-29T06:17:43.098Z,9.462985
2023-10-29T06:18:42.894Z,9.462911
2023-10-29T06:19:42.811Z,9.462931
2023-10-29T06:20:42.854Z,9.462987
2023-10-29T06:21:42.818Z,9.463003
2023-10-29T06:22:42.962Z,9.462977
2023-10-29T06:23:42.826Z,9.462961
2023-10-29T06:24:42.797Z,9.462975
2023-10-29T06:25:42.804Z,9.463004
2023-10-29T06:26:42.807Z,9.462957
2023-10-29T06:27:42.813Z,9.462925
2023-10-29T06:28:42.847Z,9.462942
2023-10-29T06:29:42.913Z,9.462975
2023-10-29T06:30:42.760Z,9.462881
2023-10-29T06:31:42.741Z,9.462920
2023-10-29T06:32:42.843Z,9.462991
2023-10-29T06:33:42.885Z,9.462859
2023-10-29T06:34:42.723Z,9.462950
2023-10-29T06:35:42.766Z,9.462873
2023-10-29T06:36:42.709Z,9.462667
2023-10-29T06:37:42.713Z,9.462975
2023-10-29T06:38:42.713Z,9.463066
2023-10-29T06:39:42.721Z,9.462953
2023-10-29T06:40:42.683Z,9.462970
2023-10-29T06:41:42.685Z,9.463083
2023-10-29T06:42:42.671Z,9.463034
2023-10-29T06:43:42.658Z,9.463085
2023-10-29T06:44:42.752Z,9.463115
2023-10-29T06:45:42.642Z,9.463077
2023-10-29T06:46:42.672Z,9.463146
2023-10-29T06:47:42.703Z,9.463036
2023-10-29T06:48:42.625Z,9.462999
2023-10-29T06:49:42.615Z,9.463039
2023-10-29T06:50:42.670Z,9.462960
2023-10-29T06:51:42.594Z,9.462979
2023-10-29T06:52:42.596Z,9.463017
2023-10-29T06:53:42.585Z,9.462939
2023-10-29T06:54:42.600Z,9.462943
2023-10-29T06:55:42.585Z,9.462979
2023-10-29T06:56:42.615Z,9.462961
2023-10-29T06:57:42.571Z,9.463005
2023-10-29T06:58:42.551Z,9.463013
2023-10-29T06:59:42.630Z,9.462984
2023-10-29T07:00:42.565Z,9.463003
2023-10-29T07:01:42.577Z,9.462972
2023-10-29T07:02:42.608Z,9.462958
2023-10-29T07:03:42.664Z,9.462962
2023-10-29T07:04:42.528Z,9.462947
2023-10-29T07:05:42.523Z,9.462978
2023-10-29T07:06:44.158Z,9.462953
2023-10-29T07:07:42.518Z,9.462972
2023-10-29T07:08:42.512Z,9.462934
2023-10-29T07:09:42.466Z,9.462955
2023-10-29T07:10:42.474Z,9.462972
2023-10-29T07:11:42.462Z,9.462916
2023-10-29T07:12:42.498Z,9.462850
2023-10-29T07:13:42.505Z,9.462877
2023-10-29T07:14:42.488Z,9.463027
2023-10-29T07:15:42.460Z,9.462950
2023-10-29T07:16:42.478Z,9.462987
2023-10-29T07:17:42.553Z,9.462926
2023-10-29T07:18:42.506Z,9.462989
2023-10-29T07:19:42.407Z,9.462990
2023-10-29T07:20:42.449Z,9.462980
2023-10-29T07:21:42.397Z,9.463177
2023-10-29T07:22:42.497Z,9.463121
2023-10-29T07:23:42.416Z,9.463119
2023-10-29T07:24:42.406Z,9.463001
2023-10-29T07:25:42.362Z,9.463003
2023-10-29T07:26:42.423Z,9.462915
2023-10-29T07:27:42.346Z,9.462976
2023-10-29T07:28:42.348Z,9.463016
2023-10-29T07:29:42.393Z,9.462996
2023-10-29T07:30:42.327Z,9.463095
2023-10-29T07:31:42.361Z,9.463055
2023-10-29T07:32:42.406Z,9.463085
2023-10-29T07:33:42.301Z,9.463056
2023-10-29T07:34:42.334Z,9.462973
2023-10-29T07:35:42.303Z,9.462961
2023-10-29T07:36:42.333Z,9.462969
2023-10-29T07:37:42.274Z,9.462955
2023-10-29T07:38:42.329Z,9.462942
2023-10-29T07:39:42.301Z,9.463023
2023-10-29T07:40:42.258Z,9.463057
2023-10-29T07:41:42.289Z,9.463043
2023-10-29T07:42:42.248Z,9.463009
2023-10-29T07:43:42.327Z,9.462964
2023-10-29T07:44:42.287Z,9.462983
2023-10-29T07:45:42.238Z,9.462979
2023-10-29T07:46:42.437Z,9.462939
2023-10-29T07:47:42.263Z,9.462917
2023-10-29T07:48:42.268Z,9.462851
2023-10-29T07:49:42.188Z,9.462893
2023-10-29T07:50:42.204Z,9.462988
2023-10-29T07:51:42.190Z,9.463006
2023-10-29T07:52:42.223Z,9.463022
2023-10-29T07:53:42.200Z,9.462914
2023-10-29T07:54:42.176Z,9.462919
2023-10-29T07:55:42.157Z,9.462914
2023-10-29T07:56:42.192Z,9.462983
2023-10-29T07:57:42.135Z,9.463084
2023-10-29T07:58:42.176Z,9.462952
2023-10-29T07:59:42.181Z,9.462921
2023-10-29T08:00:42.116Z,9.462992
2023-10-29T08:01:42.109Z,9.462958
2023-10-29T08:02:42.191Z,9.462931
2023-10-29T08:03:42.243Z,9.462912
2023-10-29T08:04:42.291Z,9.462933
2023-10-29T08:05:42.096Z,9.462883
2023-10-29T08:06:42.074Z,9.462975
2023-10-29T08:07:42.085Z,9.462852
2023-10-29T08:08:42.185Z,9.462989
2023-10-29T08:09:42.089Z,9.462991
2023-10-29T08:10:42.060Z,9.462958
2023-10-29T08:11:42.065Z,9.462935
2023-10-29T08:12:42.037Z,9.462991
2023-10-29T08:13:42.025Z,9.462915
2023-10-29T08:14:42.146Z,9.462882
2023-10-29T08:15:43.729Z,9.462762
2023-10-29T08:16:42.000Z,9.462756
2023-10-29T08:17:42.105Z,9.462816
2023-10-29T08:18:42.039Z,9.462927
2023-10-29T08:19:42.191Z,9.462965
2023-10-29T08:20:42.083Z,9.462978
2023-10-29T08:21:41.969Z,9.462908
2023-10-29T08:22:44.567Z,9.462934
2023-10-29T08:23:42.136Z,9.462956
2023-10-29T08:24:41.953Z,9.462981
2023-10-29T08:25:41.941Z,9.462916
2023-10-29T08:26:41.952Z,9.462926
2023-10-29T08:27:41.941Z,9.462971
2023-10-29T08:28:41.916Z,9.462920
2023-10-29T08:29:41.952Z,9.463000
2023-10-29T08:30:41.910Z,9.462828
2023-10-29T08:31:41.909Z,9.462970
2023-10-29T08:32:42.001Z,9.462899
2023-10-29T08:33:41.913Z,9.462966
2023-10-29T08:34:41.997Z,9.462937
2023-10-29T08:35:41.896Z,9.463041
2023-10-29T08:36:41.958Z,9.463049
2023-10-29T08:37:42.891Z,9.462879
2023-10-29T08:38:41.942Z,9.462966
2023-10-29T08:39:41.862Z,9.463043
2023-10-29T08:40:41.837Z,9.463094
2023-10-29T08:41:41.857Z,9.462997
2023-10-29T08:42:41.828Z,9.463037
2023-10-29T08:43:41.815Z,9.462987
2023-10-29T08:44:41.930Z,9.462893
2023-10-29T08:45:42.890Z,9.462922
2023-10-29T08:46:41.805Z,9.462934
2023-10-29T08:47:41.905Z,9.462968
2023-10-29T08:48:41.848Z,9.462873
2023-10-29T08:49:41.800Z,9.462901
2023-10-29T08:50:41.801Z,9.462914
2023-10-29T08:51:41.757Z,9.462933
2023-10-29T08:52:41.778Z,9.462873
2023-10-29T08:53:41.816Z,9.462859
2023-10-29T08:54:41.873Z,9.462798
2023-10-29T08:55:41.733Z,9.462707
2023-10-29T08:56:41.763Z,9.462845
2023-10-29T08:57:41.745Z,9.462861
2023-10-29T08:58:41.852Z,9.462819
2023-10-29T08:59:41.823Z,9.462875
2023-10-29T09:00:46.415Z,9.462862
2023-10-29T09:01:42.768Z,9.462779
2023-10-29T09:02:41.886Z,9.462846
2023-10-29T09:03:41.929Z,9.462877
2023-10-29T09:04:42.240Z,9.462911
2023-10-29T09:05:41.761Z,9.462878
2023-10-29T09:06:41.689Z,9.463061
2023-10-29T09:07:42.649Z,9.463073
2023-10-29T09:08:41.919Z,9.462953
2023-10-29T09:09:41.641Z,9.463064
2023-10-29T09:10:42.635Z,9.462899
2023-10-29T09:11:41.633Z,9.463081
2023-10-29T09:12:41.665Z,9.462777
2023-10-29T09:13:42.696Z,9.462805
2023-10-29T09:14:41.762Z,9.462998
2023-10-29T09:15:41.715Z,9.462731
2023-10-29T09:16:41.612Z,9.462402
2023-10-29T09:17:41.624Z,9.462712
2023-10-29T09:18:41.619Z,9.462866
2023-10-29T09:19:41.589Z,9.462924
2023-10-29T09:20:41.632Z,9.462910
2023-10-29T09:21:41.556Z,9.462908
2023-10-29T09:22:41.562Z,9.462845
2023-10-29T09:23:41.596Z,9.462871
2023-10-29T09:24:41.550Z,9.462878
2023-10-29T09:25:41.962Z,9.462874
2023-10-29T09:26:41.559Z,9.462788
2023-10-29T09:27:41.523Z,9.462834
2023-10-29T09:28:41.547Z,9.462717
2023-10-29T09:29:41.583Z,9.462708
2023-10-29T09:30:41.523Z,9.462748
2023-10-29T09:31:41.558Z,9.462905
2023-10-29T09:32:41.557Z,9.462880
2023-10-29T09:33:41.517Z,9.462942
2023-10-29T09:34:41.466Z,9.462910
2023-10-29T09:35:41.468Z,9.462900
2023-10-29T09:36:41.493Z,9.462858
2023-10-29T09:37:41.459Z,9.462906
2023-10-29T09:38:41.439Z,9.462937
2023-10-29T09:39:41.469Z,9.462915
2023-10-29T09:40:41.448Z,9.462907
2023-10-29T09:41:41.466Z,9.462908
2023-10-29T09:42:41.446Z,9.462922
2023-10-29T09:43:41.408Z,9.462924
2023-10-29T09:44:41.469Z,9.462906
2023-10-29T09:45:41.420Z,9.462893
2023-10-29T09:46:41.402Z,9.462902
2023-10-29T09:47:41.485Z,9.462901
2023-10-29T09:48:41.448Z,9.462923
2023-10-29T09:49:41.396Z,9.462931
2023-10-29T09:50:41.374Z,9.462939
2023-10-29T09:51:41.344Z,9.462945
2023-10-29T09:52:41.420Z,9.462954
2023-10-29T09:53:41.436Z,9.462918
2023-10-29T09:54:41.350Z,9.462907
2023-10-29T09:55:41.325Z,9.462944
2023-10-29T09:56:41.412Z,9.462981
2023-10-29T09:57:41.303Z,9.462926
2023-10-29T09:58:41.305Z,9.463019
2023-10-29T09:59:41.398Z,9.462997
2023-10-29T10:00:41.276Z,9.462955
2023-10-29T10:01:55.442Z,9.462938
2023-10-29T10:02:42.406Z,9.463118
2023-10-29T10:03:41.414Z,9.463118
2023-10-29T10:04:41.259Z,9.462980
2023-10-29T10:05:41.299Z,9.462983
2023-10-29T10:06:42.205Z,9.462955
2023-10-29T10:07:41.224Z,9.463028
2023-10-29T10:08:41.260Z,9.463002
2023-10-29T10:09:41.209Z,9.463081
2023-10-29T10:10:41.246Z,9.463083
2023-10-29T10:11:41.298Z,9.463081
2023-10-29T10:12:41.269Z,9.463027
2023-10-29T10:13:41.179Z,9.462999
2023-10-29T10:14:41.221Z,9.462979
2023-10-29T10:15:41.278Z,9.463011
2023-10-29T10:16:41.295Z,9.463024
2023-10-29T10:17:41.444Z,9.463134
2023-10-29T10:18:41.175Z,9.463007
2023-10-29T10:19:41.330Z,9.463121
2023-10-29T10:20:41.210Z,9.463118
2023-10-29T10:21:41.134Z,9.463045
2023-10-29T10:22:41.132Z,9.463036
2023-10-29T10:23:41.164Z,9.463008
2023-10-29T10:24:41.117Z,9.462958
2023-10-29T10:25:41.152Z,9.463004
2023-10-29T10:26:41.106Z,9.463065
2023-10-29T10:27:41.084Z,9.462996
2023-10-29T10:28:41.135Z,9.462961
2023-10-29T10:29:41.099Z,9.463014
2023-10-29T10:30:41.109Z,9.463076
2023-10-29T10:31:41.064Z,9.463055
2023-10-29T10:32:41.134Z,9.462993
2023-10-29T10:33:41.153Z,9.463008
2023-10-29T10:34:41.087Z,9.463034
2023-10-29T10:35:41.064Z,9.463025
2023-10-29T10:36:41.018Z,9.463024
2023-10-29T10:37:41.008Z,9.462989
2023-10-29T10:38:41.017Z,9.463060
2023-10-29T10:39:40.991Z,9.463077
2023-10-29T10:40:41.024Z,9.463060
2023-10-29T10:41:40.987Z,9.462968
2023-10-29T10:42:40.990Z,9.462851
2023-10-29T10:43:40.977Z,9.463001
2023-10-29T10:44:41.025Z,9.463197
2023-10-29T10:45:40.993Z,9.463014
2023-10-29T10:46:40.962Z,9.462998
2023-10-29T10:47:41.001Z,9.463060
2023-10-29T10:48:40.998Z,9.463021
2023-10-29T10:49:40.943Z,9.462908
2023-10-29T10:50:40.965Z,9.462985
2023-10-29T10:51:40.904Z,9.462998
2023-10-29T10:52:40.902Z,9.462997
2023-10-29T10:53:42.500Z,9.462983
2023-10-29T10:54:40.921Z,9.462963
2023-10-29T10:55:58.977Z,9.463026
2023-10-29T10:56:41.896Z,9.463076
2023-10-29T10:57:41.041Z,9.462958
2023-10-29T10:58:40.870Z,9.462987
2023-10-29T10:59:40.897Z,9.462844
2023-10-29T11:00:40.879Z,9.462781
2023-10-29T11:01:40.859Z,9.462994
2023-10-29T11:02:40.968Z,9.462810
2023-10-29T11:03:40.997Z,9.462929
2023-10-29T11:04:40.972Z,9.462816
2023-10-29T11:05:40.920Z,9.462927
2023-10-29T11:06:40.833Z,9.462959
2023-10-29T11:07:40.788Z,9.463001
2023-10-29T11:08:40.858Z,9.463111
2023-10-29T11:09:40.774Z,9.463164
2023-10-29T11:10:41.005Z,9.463143
2023-10-29T11:11:40.790Z,9.463054
2023-10-29T11:12:40.755Z,9.462960
2023-10-29T11:13:40.784Z,9.462821
2023-10-29T11:14:40.858Z,9.462845
2023-10-29T11:15:40.736Z,9.462929
2023-10-29T11:16:40.811Z,9.463103
2023-10-29T11:17:40.785Z,9.462975
2023-10-29T11:18:40.738Z,9.462765
2023-10-29T11:19:40.700Z,9.462861
2023-10-29T11:20:40.727Z,9.462738
2023-10-29T11:21:40.689Z,9.462733
2023-10-29T11:22:40.692Z,9.462768
2023-10-29T11:23:40.773Z,9.463120
2023-10-29T11:24:40.932Z,9.463036
2023-10-29T11:25:40.683Z,9.462944
2023-10-29T11:26:40.716Z,9.462925
2023-10-29T11:27:40.662Z,9.462900
2023-10-29T11:28:40.680Z,9.462891
2023-10-29T11:29:40.697Z,9.462934
2023-10-29T11:30:40.622Z,9.462929
2023-10-29T11:31:40.736Z,9.462930
2023-10-29T11:32:40.717Z,9.462880
2023-10-29T11:33:40.651Z,9.462847
2023-10-29T11:34:40.668Z,9.462752
2023-10-29T11:35:40.604Z,9.462644
2023-10-29T11:36:40.592Z,9.462673
2023-10-29T11:37:40.577Z,9.462688
2023-10-29T11:38:40.660Z,9.462749
2023-10-29T11:39:40.808Z,9.462850
2023-10-29T11:40:40.557Z,9.462767
2023-10-29T11:41:41.716Z,9.462976
2023-10-29T11:42:40.546Z,9.462998
2023-10-29T11:43:40.569Z,9.463046
2023-10-29T11:44:40.623Z,9.463026
2023-10-29T11:45:40.517Z,9.462996